Extreme weather reports worldwide

Highest temperatures

Station
 
Location
 
Name
 
Wind
Knots
Gust
Knots
Vis
SM
Temp/Dew
C
Baro
inHg
METAR
 
HLC KHLC Hill City, US Hill City Municipal Airport 11 19 10 37/7 29.75 KHLC 262153Z AUTO 21011G19KT 10SM CLR 37/07 A2975 RMK AO2 PK WND 22027/2054 SLP051 T03720072 $
CNK KCNK Concordia, US Blosser Municipal Airport 16 25 10 37/3 29.74 KCNK 262155Z AUTO 22016G25KT 10SM CLR 37/04 A2974 RMK AO2 PK WND 21030/2137 SLP051 T03720039
KK82 10 10 37/1 29.73 KK82 262215Z AUTO 23010KT 10SM CLR 37/01 A2973 RMK AO2 LTG DSNT W
HMO MMHO Hermosillo, MX General Ignacio P. Garcia International Airport 5 10 36/14 29.89 MMHO 262141Z 29005KT 10SM SKC 36/14 A2989 RMK ISOL CU DSNT CB W
CEN MMCN Ciudad Obregón, MX Ciudad Obregón International Airport 4 10 36/14 29.82 MMCN 262142Z 23004KT 10SM SCT200 36/14 A2982 RMK 8/008 ISOL CU

Station
 
Location
 
Name
 
Wind
Knots
Gust
Knots
Vis
SM
Temp/Dew
C
Baro
inHg
METAR
 
MHK KMHK Manhattan, US Manhattan Regional Airport 17 26 10 36/7 29.76 KMHK 262152Z 22017G26KT 10SM CLR 36/07 A2976 RMK AO2 PK WND 22032/2053 SLP065 T03610072
MCK KMCK Mc Cook, US Mc Cook Ben Nelson Regional Airport 9 10 36/-1 29.76 KMCK 262153Z AUTO 26009KT 10SM CLR 37/M02 A2976 RMK AO2 SLP052 T03671017 $
HYS KHYS Hays, US Hays Regional Airport 24 29 10 36/2 29.77 KHYS 262156Z AUTO 20024G29KT 10SM CLR 36/02 A2977 RMK AO2 PK WND 21029/2149 SLP063 T03610022 $
RBO SLRB Roboré, BO Roboré Airport 0 3.11 36/21 29.85 SLRB 262200Z 00000KT 5000 FU NSC 36/21 Q1011
K2V5 12 21 10 36/-3 29.85 K2V5 262215Z AUTO 33012G21KT 10SM CLR 36/M03 A2985 RMK AO2 LTG DSNT SW
KMYZ Marysville, US Marysville Municipal Airport 13 20 10 36/7 29.74 KMYZ 262215Z AUTO 22013G20KT 10SM CLR 36/07 A2974 RMK AO2
KNRN Norton, US Norton Municipal Airport 6 10 36/6 29.79 KNRN 262215Z AUTO 23006KT 10SM CLR 36/06 A2979 RMK AO2
KOEL Oakley, US Oakley Municipal Airport 0 10 36/-5 29.81 KOEL 262215Z AUTO 00000KT 10SM CLR 37/M05 A2981 RMK AO1 T03651054
KOEL Oakley, US Oakley Municipal Airport 0 10 36/-5 29.81 KOEL 262215Z AUTO 00000KT 10SM CLR 37/M05 A2981 RMK AO1 T03651054
KOIN Oberlin, US Oberlin Municipal Airport 5 10 36/5 29.80 KOIN 262215Z AUTO 13005KT 10SM CLR 37/05 A2980 RMK AO1 T03670053
WDG KWDG Enid, US Enid Woodring Regional Airport 20 27 10 35/5 29.89 KWDG 262145Z 19020G27KT 10SM SCT250 35/05 A2989
HUT KHUT Hutchinson, US Hutchinson Municipal Airport 21 32 10 35/3 29.82 KHUT 262152Z 21021G32KT 10SM CLR 35/03 A2982 RMK AO2 PK WND 21036/2105 SLP073 T03500033
IFP KIFP Bullhead City, US Laughlin Bullhead International Airport 13 10 35/11 29.84 KIFP 262152Z 18013KT 10SM SCT150 35/11 A2984
BBW KBBW Broken Bow, US Broken Bow Municipal Airport 6 10 35/0 29.74 KBBW 262153Z AUTO 27006KT 10SM CLR 36/01 A2974 RMK AO2 SLP045 T03560006
KFNB Falls City, US Brenner Field 13 22 10 35/8 29.73 KFNB 262153Z AUTO 23013G22KT 10SM CLR 35/09 A2973 RMK AO2 PK WND 24030/2109 SLP056 T03500089 TSNO
GLD KGLD Goodland, US Renner Field-Goodland Municipal Airport 6 10 35/-5 29.85 KGLD 262153Z AUTO 32006KT 10SM CLR 36/M05 A2985 RMK AO2 SLP059 T03561050
IML KIML Imperial, US Imperial Municipal Airport 11 10 35/0 29.81 KIML 262153Z AUTO 32011KT 10SM CLR 36/00 A2981 RMK AO2 SLP063 T03560000
KITR Burlington, US Kit Carson County Airport 3 10 35/-3 29.90 KITR 262153Z AUTO VRB03KT 10SM CLR 35/M04 A2990 RMK AO2 SLP067 T03501039 $
LAA KLAA Lamar, US Southeast Colorado Regional Airport 5 10 35/2 29.84 KLAA 262153Z AUTO 05005KT 10SM CLR 36/03 A2984 RMK AO2 SLP057 T03560028
RSL KRSL Russell, US Russell Municipal Airport 20 30 10 35/2 29.76 KRSL 262153Z AUTO 21020G30KT 10SM CLR 36/02 A2976 RMK AO2 PK WND 21033/2143 SLP057 T03560022
SLN KSLN Salina, US Salina Municipal Airport 20 30 10 35/5 29.77 KSLN 262153Z 21020G30KT 10SM CLR 36/05 A2977 RMK AO2 PK WND 23036/2055 SLP066 T03560050
SWO KSWO Stillwater, US Stillwater Regional Airport 16 20 10 35/8 29.92 KSWO 262153Z COR 22016G20KT 10SM CLR 35/09 A2992 RMK AO2 PK WND 19026/2100 SLP116 T03500089
FRI KFRI Fort Riley(Junction City), US Marshall Army Air Field 19 23 10 35/8 29.75 KFRI 262156Z AUTO 22019G23KT 10SM CLR 35/08 A2975 RMK AO2 PK WND 23026/02 SLP062 T03540082
KP28 18 30 35/2 29.84 KP28 262156Z AUTO 20018G30KT 35/02 A2984 RMK AO1 PK WND 19032/2139 SLP087 T03500022 $
MED OEMA Medina, SA Prince Mohammad Bin Abdulaziz Airport 12 6.21 35/1 29.85 OEMA 262200Z 31012KT 9999 FEW045 35/01 Q1011 NOSIG
K3K3 4 14 10 35/0 29.84 K3K3 262215Z AUTO 18004G14KT 10SM CLR 35/00 A2984 RMK AO2
KAPY Zapata, US Zapata County Airport 0 10 35/14 29.94 KAPY 262215Z AUTO 00000KT 10SM CLR 35/14 A2994 RMK AO2 T03500144 TSNO
KAVK Alva, US Alva Regional Airport 20 29 6 35/4 29.87 KAVK 262215Z AUTO 22020G29KT 6SM HZ CLR 35/04 A2987 RMK AO2
CBK KCBK Colby, US Shalz Field 6 10 35/0 29.81 KCBK 262215Z AUTO 29006KT 10SM CLR 36/M01 A2981 RMK AO2 T03591009
KEVU Maryville, US Northwest Missouri Regional Airport 14 19 10 35/10 29.74 KEVU 262215Z AUTO 23014G19KT 10SM CLR 35/10 A2974 RMK AO2 T03500105
KHEQ Holyoke, US Holyoke Airport 5 10 35/0 29.86 KHEQ 262215Z AUTO 31005KT 10SM CLR 35/00 A2986 RMK AO2
KHJH Hebron, US Hebron Municipal Airport 12 16 10 35/8 29.73 KHJH 262215Z AUTO 24012G16KT 10SM CLR 35/08 A2973 RMK AO2 T03500080
KJHN 10 18 10 35/0 29.84 KJHN 262215Z AUTO 22010G18KT 10SM CLR 36/00 A2984 RMK AO2 T03551002
LXN KLXN Lexington, US Jim Kelly Field 7 10 35/4 29.75 KLXN 262215Z AUTO 27007KT 10SM CLR 35/05 A2975 RMK AO2 T03520045
KSYF St Francis, US Cheyenne County Municipal Airport 11 10 35/-5 29.83 KSYF 262215Z AUTO 28011KT 10SM CLR 36/M05 A2983 RMK AO2 T03551055 PWINO
KTQK Scott City, US Scott City Municipal Airport 17 21 10 35/2 29.82 KTQK 262215Z AUTO 20017G21KT 10SM CLR 36/02 A2982 RMK AO2 T03590024
KULS Ulysses, US Ulysses Airport 17 22 10 35/1 29.83 KULS 262215Z AUTO 20017G22KT 10SM CLR 35/01 A2983 RMK AO2
CNU KCNU Chanute, US Chanute Martin Johnson Airport 19 27 10 34/10 29.88 KCNU 262152Z AUTO 20019G27KT 10SM CLR 34/10 A2988 RMK AO2 PK WND 20029/2107 SLP107 T03440100
DDC KDDC Dodge City, US Dodge City Regional Airport 21 29 10 34/0 29.85 KDDC 262152Z AUTO 20021G29KT 10SM CLR 34/M01 A2985 RMK AO2 PK WND 21030/2135 SLP073 T03441006
VTN KVTN Valentine, US Miller Field 0 10 34/5 29.76 KVTN 262152Z AUTO 00000KT 10SM CLR 34/06 A2976 RMK AO2 SLP056 T03440056
COT KCOT Cotulla, US Cotulla-La Salle County Airport 7 15 10 34/5 29.95 KCOT 262153Z AUTO 10007G15KT 10SM CLR 34/06 A2995 RMK AO2 SLP135 T03440056
GRI KGRI Grand Island, US Central Nebraska Regional Airport 12 10 34/7 29.72 KGRI 262153Z 20012KT 10SM CLR 34/08 A2972 RMK AO2 SLP053 T03440078
KLHX La Junta, US La Junta Municipal Airport 8 10 34/0 29.89 KLHX 262153Z AUTO 11008KT 10SM CLR 34/00 A2989 RMK AO2 SLP055 T03440000
PNC KPNC Ponca City, US Ponca City Regional Airport 8 22 10 34/8 29.89 KPNC 262153Z AUTO 20008G22KT 10SM CLR 34/08 A2989 RMK AO2 SLP106 T03440083
PSP KPSP Palm Springs, US Palm Springs International Airport 4 10 34/12 29.88 KPSP 262153Z VRB04KT 10SM CLR 34/12 A2988 RMK AO2 SLP113 T03440122